sensor_id;sensor_type;location;lat;lon;timestamp;P1;durP1;ratioP1;P2;durP2;ratioP2
50779;SDS011;36748;37.428;-121.972;2023-11-19T00:00:50;0.70;;;0.30;;
50779;SDS011;36748;37.428;-121.972;2023-11-19T00:03:17;1.17;;;0.30;;
50779;SDS011;36748;37.428;-121.972;2023-11-19T00:05:43;0.38;;;0.10;;
50779;SDS011;36748;37.428;-121.972;2023-11-19T00:08:29;0.50;;;0.20;;
50779;SDS011;36748;37.428;-121.972;2023-11-19T00:10:56;0.57;;;0.20;;
50779;SDS011;36748;37.428;-121.972;2023-11-19T00:13:22;0.73;;;0.30;;
50779;SDS011;36748;37.428;-121.972;2023-11-19T00:15:48;0.93;;;0.10;;
50779;SDS011;36748;37.428;-121.972;2023-11-19T00:18:14;1.15;;;0.30;;
50779;SDS011;36748;37.428;-121.972;2023-11-19T00:20:41;0.70;;;0.45;;
50779;SDS011;36748;37.428;-121.972;2023-11-19T00:23:10;1.83;;;0.30;;
50779;SDS011;36748;37.428;-121.972;2023-11-19T00:25:36;0.50;;;0.20;;
50779;SDS011;36748;37.428;-121.972;2023-11-19T00:28:04;1.25;;;0.40;;
50779;SDS011;36748;37.428;-121.972;2023-11-19T00:30:30;1.17;;;0.30;;
50779;SDS011;36748;37.428;-121.972;2023-11-19T00:32:56;0.55;;;0.20;;
50779;SDS011;36748;37.428;-121.972;2023-11-19T00:35:22;1.20;;;0.38;;
50779;SDS011;36748;37.428;-121.972;2023-11-19T00:37:48;0.75;;;0.30;;
50779;SDS011;36748;37.428;-121.972;2023-11-19T00:40:16;0.63;;;0.22;;
50779;SDS011;36748;37.428;-121.972;2023-11-19T00:42:43;0.52;;;0.15;;
50779;SDS011;36748;37.428;-121.972;2023-11-19T00:45:10;1.13;;;0.20;;
50779;SDS011;36748;37.428;-121.972;2023-11-19T00:47:38;0.20;;;0.20;;
50779;SDS011;36748;37.428;-121.972;2023-11-19T00:50:04;0.60;;;0.20;;
50779;SDS011;36748;37.428;-121.972;2023-11-19T00:52:31;0.85;;;0.38;;
50779;SDS011;36748;37.428;-121.972;2023-11-19T00:54:57;0.82;;;0.20;;
50779;SDS011;36748;37.428;-121.972;2023-11-19T00:57:23;0.77;;;0.38;;
50779;SDS011;36748;37.428;-121.972;2023-11-19T00:59:49;0.63;;;0.30;;
50779;SDS011;36748;37.428;-121.972;2023-11-19T01:02:15;0.40;;;0.30;;
50779;SDS011;36748;37.428;-121.972;2023-11-19T01:04:42;0.32;;;0.17;;
50779;SDS011;36748;37.428;-121.972;2023-11-19T01:07:08;1.48;;;0.30;;
50779;SDS011;36748;37.428;-121.972;2023-11-19T01:09:38;3.10;;;0.30;;
50779;SDS011;36748;37.428;-121.972;2023-11-19T01:12:05;0.73;;;0.20;;
50779;SDS011;36748;37.428;-121.972;2023-11-19T01:14:31;1.35;;;0.20;;
50779;SDS011;36748;37.428;-121.972;2023-11-19T01:16:58;0.80;;;0.25;;
50779;SDS011;36748;37.428;-121.972;2023-11-19T01:19:24;0.77;;;0.28;;
50779;SDS011;36748;37.428;-121.972;2023-11-19T01:21:50;0.57;;;0.30;;
50779;SDS011;36748;37.428;-121.972;2023-11-19T01:24:17;0.63;;;0.30;;
50779;SDS011;36748;37.428;-121.972;2023-11-19T01:26:43;0.73;;;0.30;;
50779;SDS011;36748;37.428;-121.972;2023-11-19T01:29:14;0.32;;;0.20;;
50779;SDS011;36748;37.428;-121.972;2023-11-19T01:31:41;0.50;;;0.15;;
50779;SDS011;36748;37.428;-121.972;2023-11-19T01:34:07;0.95;;;0.20;;
50779;SDS011;36748;37.428;-121.972;2023-11-19T01:36:34;0.68;;;0.20;;
50779;SDS011;36748;37.428;-121.972;2023-11-19T01:39:00;0.80;;;0.40;;
50779;SDS011;36748;37.428;-121.972;2023-11-19T01:41:28;0.25;;;0.20;;
50779;SDS011;36748;37.428;-121.972;2023-11-19T01:43:54;1.00;;;0.50;;
50779;SDS011;36748;37.428;-121.972;2023-11-19T01:46:20;1.98;;;0.65;;
50779;SDS011;36748;37.428;-121.972;2023-11-19T01:48:46;0.88;;;0.60;;
50779;SDS011;36748;37.428;-121.972;2023-11-19T01:51:12;3.53;;;0.70;;
50779;SDS011;36748;37.428;-121.972;2023-11-19T01:53:41;1.45;;;0.68;;
50779;SDS011;36748;37.428;-121.972;2023-11-19T01:56:09;1.88;;;0.47;;
50779;SDS011;36748;37.428;-121.972;2023-11-19T01:58:37;0.65;;;0.43;;
50779;SDS011;36748;37.428;-121.972;2023-11-19T02:01:05;2.08;;;0.40;;
50779;SDS011;36748;37.428;-121.972;2023-11-19T02:03:33;0.75;;;0.20;;
50779;SDS011;36748;37.428;-121.972;2023-11-19T02:05:59;2.00;;;0.43;;
50779;SDS011;36748;37.428;-121.972;2023-11-19T02:08:26;2.90;;;0.50;;
50779;SDS011;36748;37.428;-121.972;2023-11-19T02:10:52;1.90;;;0.40;;
50779;SDS011;36748;37.428;-121.972;2023-11-19T02:13:22;0.88;;;0.43;;
50779;SDS011;36748;37.428;-121.972;2023-11-19T02:15:50;0.60;;;0.30;;
50779;SDS011;36748;37.428;-121.972;2023-11-19T02:20:49;0.90;;;0.28;;
50779;SDS011;36748;37.428;-121.972;2023-11-19T02:23:16;1.20;;;0.28;;
50779;SDS011;36748;37.428;-121.972;2023-11-19T02:25:46;1.50;;;0.30;;
50779;SDS011;36748;37.428;-121.972;2023-11-19T02:28:16;2.45;;;0.43;;
50779;SDS011;36748;37.428;-121.972;2023-11-19T02:30:43;3.45;;;0.40;;
50779;SDS011;36748;37.428;-121.972;2023-11-19T02:33:09;1.27;;;0.52;;
50779;SDS011;36748;37.428;-121.972;2023-11-19T02:35:35;0.57;;;0.30;;
50779;SDS011;36748;37.428;-121.972;2023-11-19T02:38:02;1.25;;;0.50;;
50779;SDS011;36748;37.428;-121.972;2023-11-19T02:40:32;2.20;;;0.57;;
50779;SDS011;36748;37.428;-121.972;2023-11-19T02:42:58;0.77;;;0.38;;
50779;SDS011;36748;37.428;-121.972;2023-11-19T02:45:25;0.47;;;0.20;;
50779;SDS011;36748;37.428;-121.972;2023-11-19T02:47:52;0.85;;;0.40;;
50779;SDS011;36748;37.428;-121.972;2023-11-19T02:50:20;0.40;;;0.15;;
50779;SDS011;36748;37.428;-121.972;2023-11-19T02:52:53;1.27;;;0.40;;
50779;SDS011;36748;37.428;-121.972;2023-11-19T02:55:21;0.52;;;0.30;;
50779;SDS011;36748;37.428;-121.972;2023-11-19T02:57:49;0.95;;;0.47;;
50779;SDS011;36748;37.428;-121.972;2023-11-19T03:00:21;0.82;;;0.40;;
50779;SDS011;36748;37.428;-121.972;2023-11-19T03:02:59;0.70;;;0.30;;
50779;SDS011;36748;37.428;-121.972;2023-11-19T03:05:30;1.20;;;0.55;;
50779;SDS011;36748;37.428;-121.972;2023-11-19T03:07:57;1.42;;;0.25;;
50779;SDS011;36748;37.428;-121.972;2023-11-19T03:10:23;1.55;;;0.40;;
50779;SDS011;36748;37.428;-121.972;2023-11-19T03:12:49;0.35;;;0.22;;
50779;SDS011;36748;37.428;-121.972;2023-11-19T03:15:15;1.02;;;0.40;;
50779;SDS011;36748;37.428;-121.972;2023-11-19T03:17:42;1.50;;;0.30;;
50779;SDS011;36748;37.428;-121.972;2023-11-19T03:20:09;0.50;;;0.30;;
50779;SDS011;36748;37.428;-121.972;2023-11-19T03:22:39;1.52;;;0.50;;
50779;SDS011;36748;37.428;-121.972;2023-11-19T03:25:07;1.48;;;0.22;;
50779;SDS011;36748;37.428;-121.972;2023-11-19T03:27:37;0.45;;;0.30;;
50779;SDS011;36748;37.428;-121.972;2023-11-19T03:30:10;1.58;;;0.60;;
50779;SDS011;36748;37.428;-121.972;2023-11-19T03:32:36;1.42;;;0.40;;
50779;SDS011;36748;37.428;-121.972;2023-11-19T03:35:04;0.73;;;0.20;;
50779;SDS011;36748;37.428;-121.972;2023-11-19T03:37:34;1.45;;;0.40;;
50779;SDS011;36748;37.428;-121.972;2023-11-19T03:40:01;1.33;;;0.50;;
50779;SDS011;36748;37.428;-121.972;2023-11-19T03:42:28;0.75;;;0.40;;
50779;SDS011;36748;37.428;-121.972;2023-11-19T03:44:59;1.52;;;0.40;;
50779;SDS011;36748;37.428;-121.972;2023-11-19T03:47:25;4.00;;;0.35;;
50779;SDS011;36748;37.428;-121.972;2023-11-19T03:49:52;3.33;;;0.50;;
50779;SDS011;36748;37.428;-121.972;2023-11-19T03:52:18;3.35;;;0.40;;
50779;SDS011;36748;37.428;-121.972;2023-11-19T03:54:45;4.72;;;0.70;;
50779;SDS011;36748;37.428;-121.972;2023-11-19T03:57:11;2.47;;;0.60;;
50779;SDS011;36748;37.428;-121.972;2023-11-19T03:59:38;1.52;;;0.40;;
50779;SDS011;36748;37.428;-121.972;2023-11-19T04:02:05;4.80;;;0.65;;
50779;SDS011;36748;37.428;-121.972;2023-11-19T04:04:31;1.45;;;0.30;;
50779;SDS011;36748;37.428;-121.972;2023-11-19T04:06:58;1.95;;;0.50;;
50779;SDS011;36748;37.428;-121.972;2023-11-19T04:09:26;1.67;;;0.47;;
50779;SDS011;36748;37.428;-121.972;2023-11-19T04:11:52;1.55;;;0.30;;
50779;SDS011;36748;37.428;-121.972;2023-11-19T04:14:18;0.68;;;0.40;;
50779;SDS011;36748;37.428;-121.972;2023-11-19T04:16:44;0.68;;;0.40;;
50779;SDS011;36748;37.428;-121.972;2023-11-19T04:19:11;3.33;;;0.82;;
50779;SDS011;36748;37.428;-121.972;2023-11-19T04:21:41;1.13;;;0.43;;
50779;SDS011;36748;37.428;-121.972;2023-11-19T04:24:08;2.47;;;0.68;;
50779;SDS011;36748;37.428;-121.972;2023-11-19T04:26:44;2.03;;;0.40;;
50779;SDS011;36748;37.428;-121.972;2023-11-19T04:29:11;1.35;;;0.43;;
50779;SDS011;36748;37.428;-121.972;2023-11-19T04:31:38;1.40;;;0.22;;
50779;SDS011;36748;37.428;-121.972;2023-11-19T04:34:05;1.15;;;0.30;;
50779;SDS011;36748;37.428;-121.972;2023-11-19T04:36:32;1.52;;;0.50;;
50779;SDS011;36748;37.428;-121.972;2023-11-19T04:38:59;2.33;;;0.73;;
50779;SDS011;36748;37.428;-121.972;2023-11-19T04:41:26;1.05;;;0.50;;
50779;SDS011;36748;37.428;-121.972;2023-11-19T04:43:55;1.13;;;0.40;;
50779;SDS011;36748;37.428;-121.972;2023-11-19T04:46:21;1.35;;;0.40;;
50779;SDS011;36748;37.428;-121.972;2023-11-19T04:48:49;3.40;;;0.60;;
50779;SDS011;36748;37.428;-121.972;2023-11-19T04:51:16;3.25;;;0.60;;
50779;SDS011;36748;37.428;-121.972;2023-11-19T04:53:42;2.45;;;0.60;;
50779;SDS011;36748;37.428;-121.972;2023-11-19T04:56:08;1.10;;;0.40;;
50779;SDS011;36748;37.428;-121.972;2023-11-19T04:58:38;1.27;;;0.43;;
50779;SDS011;36748;37.428;-121.972;2023-11-19T05:01:05;2.33;;;0.57;;
50779;SDS011;36748;37.428;-121.972;2023-11-19T05:03:31;1.75;;;0.60;;
50779;SDS011;36748;37.428;-121.972;2023-11-19T05:05:58;2.10;;;0.50;;
50779;SDS011;36748;37.428;-121.972;2023-11-19T05:08:24;0.98;;;0.60;;
50779;SDS011;36748;37.428;-121.972;2023-11-19T05:10:50;1.50;;;0.57;;
50779;SDS011;36748;37.428;-121.972;2023-11-19T05:13:17;1.23;;;0.52;;
50779;SDS011;36748;37.428;-121.972;2023-11-19T05:15:43;1.70;;;0.50;;
50779;SDS011;36748;37.428;-121.972;2023-11-19T05:18:09;1.02;;;0.45;;
50779;SDS011;36748;37.428;-121.972;2023-11-19T05:20:35;3.35;;;0.60;;
50779;SDS011;36748;37.428;-121.972;2023-11-19T05:23:01;1.95;;;0.40;;
50779;SDS011;36748;37.428;-121.972;2023-11-19T05:25:28;4.45;;;0.57;;
50779;SDS011;36748;37.428;-121.972;2023-11-19T05:27:55;1.17;;;0.38;;
50779;SDS011;36748;37.428;-121.972;2023-11-19T05:30:21;0.95;;;0.63;;
50779;SDS011;36748;37.428;-121.972;2023-11-19T05:32:48;1.00;;;0.50;;
50779;SDS011;36748;37.428;-121.972;2023-11-19T05:35:14;2.25;;;0.50;;
50779;SDS011;36748;37.428;-121.972;2023-11-19T05:37:40;1.05;;;0.45;;
50779;SDS011;36748;37.428;-121.972;2023-11-19T05:40:07;1.63;;;0.60;;
50779;SDS011;36748;37.428;-121.972;2023-11-19T05:45:10;2.50;;;0.75;;
50779;SDS011;36748;37.428;-121.972;2023-11-19T05:47:37;7.30;;;1.20;;
50779;SDS011;36748;37.428;-121.972;2023-11-19T05:50:03;6.75;;;1.13;;
50779;SDS011;36748;37.428;-121.972;2023-11-19T05:52:31;1.98;;;0.73;;
50779;SDS011;36748;37.428;-121.972;2023-11-19T05:55:01;4.05;;;1.02;;
50779;SDS011;36748;37.428;-121.972;2023-11-19T05:57:35;2.15;;;0.93;;
50779;SDS011;36748;37.428;-121.972;2023-11-19T06:00:05;3.28;;;1.30;;
50779;SDS011;36748;37.428;-121.972;2023-11-19T06:02:35;2.63;;;0.80;;
50779;SDS011;36748;37.428;-121.972;2023-11-19T06:05:02;2.47;;;0.77;;
50779;SDS011;36748;37.428;-121.972;2023-11-19T06:07:31;2.88;;;0.90;;
50779;SDS011;36748;37.428;-121.972;2023-11-19T06:09:57;2.95;;;1.00;;
50779;SDS011;36748;37.428;-121.972;2023-11-19T06:12:24;4.82;;;0.80;;
50779;SDS011;36748;37.428;-121.972;2023-11-19T06:14:50;3.22;;;0.90;;
50779;SDS011;36748;37.428;-121.972;2023-11-19T06:17:16;4.13;;;1.08;;
50779;SDS011;36748;37.428;-121.972;2023-11-19T06:19:42;2.78;;;0.90;;
50779;SDS011;36748;37.428;-121.972;2023-11-19T06:22:10;3.78;;;0.90;;
50779;SDS011;36748;37.428;-121.972;2023-11-19T06:24:36;3.22;;;0.98;;
50779;SDS011;36748;37.428;-121.972;2023-11-19T06:27:02;3.40;;;1.13;;
50779;SDS011;36748;37.428;-121.972;2023-11-19T06:29:29;4.43;;;1.00;;
50779;SDS011;36748;37.428;-121.972;2023-11-19T06:31:55;2.58;;;1.00;;
50779;SDS011;36748;37.428;-121.972;2023-11-19T06:34:22;4.70;;;1.20;;
50779;SDS011;36748;37.428;-121.972;2023-11-19T06:36:48;3.45;;;1.00;;
50779;SDS011;36748;37.428;-121.972;2023-11-19T06:39:14;3.33;;;1.20;;
50779;SDS011;36748;37.428;-121.972;2023-11-19T06:41:46;3.65;;;0.90;;
50779;SDS011;36748;37.428;-121.972;2023-11-19T06:44:13;4.82;;;1.42;;
50779;SDS011;36748;37.428;-121.972;2023-11-19T06:46:39;3.20;;;1.13;;
50779;SDS011;36748;37.428;-121.972;2023-11-19T06:49:06;3.88;;;1.10;;
50779;SDS011;36748;37.428;-121.972;2023-11-19T06:51:35;3.10;;;0.80;;
50779;SDS011;36748;37.428;-121.972;2023-11-19T06:54:01;4.93;;;1.17;;
50779;SDS011;36748;37.428;-121.972;2023-11-19T06:56:27;4.60;;;1.13;;
50779;SDS011;36748;37.428;-121.972;2023-11-19T06:58:53;4.20;;;1.30;;
50779;SDS011;36748;37.428;-121.972;2023-11-19T07:01:19;3.50;;;1.08;;
50779;SDS011;36748;37.428;-121.972;2023-11-19T07:03:46;5.32;;;1.50;;
50779;SDS011;36748;37.428;-121.972;2023-11-19T07:06:13;2.60;;;1.27;;
50779;SDS011;36748;37.428;-121.972;2023-11-19T07:08:40;4.57;;;1.30;;
50779;SDS011;36748;37.428;-121.972;2023-11-19T07:11:10;6.50;;;1.60;;
50779;SDS011;36748;37.428;-121.972;2023-11-19T07:13:37;5.07;;;1.38;;
50779;SDS011;36748;37.428;-121.972;2023-11-19T07:16:03;3.22;;;0.95;;
50779;SDS011;36748;37.428;-121.972;2023-11-19T07:18:30;4.78;;;1.30;;
50779;SDS011;36748;37.428;-121.972;2023-11-19T07:20:57;4.65;;;1.42;;
50779;SDS011;36748;37.428;-121.972;2023-11-19T07:23:25;3.08;;;1.08;;
50779;SDS011;36748;37.428;-121.972;2023-11-19T07:25:51;3.53;;;1.20;;
50779;SDS011;36748;37.428;-121.972;2023-11-19T07:28:18;4.45;;;1.60;;
50779;SDS011;36748;37.428;-121.972;2023-11-19T07:30:44;5.30;;;1.50;;
50779;SDS011;36748;37.428;-121.972;2023-11-19T07:33:11;2.95;;;1.15;;
50779;SDS011;36748;37.428;-121.972;2023-11-19T07:35:39;3.42;;;0.98;;
50779;SDS011;36748;37.428;-121.972;2023-11-19T07:38:07;4.03;;;1.42;;
50779;SDS011;36748;37.428;-121.972;2023-11-19T07:40:34;4.15;;;1.48;;
50779;SDS011;36748;37.428;-121.972;2023-11-19T07:43:00;2.88;;;1.10;;
50779;SDS011;36748;37.428;-121.972;2023-11-19T07:45:26;3.58;;;1.23;;
50779;SDS011;36748;37.428;-121.972;2023-11-19T07:47:52;3.20;;;1.20;;
50779;SDS011;36748;37.428;-121.972;2023-11-19T07:50:20;3.83;;;1.42;;
50779;SDS011;36748;37.428;-121.972;2023-11-19T07:52:46;6.65;;;1.35;;
50779;SDS011;36748;37.428;-121.972;2023-11-19T07:55:12;4.10;;;1.48;;
50779;SDS011;36748;37.428;-121.972;2023-11-19T07:57:38;2.95;;;0.90;;
50779;SDS011;36748;37.428;-121.972;2023-11-19T08:00:05;4.45;;;1.42;;
50779;SDS011;36748;37.428;-121.972;2023-11-19T08:02:32;6.65;;;1.88;;
50779;SDS011;36748;37.428;-121.972;2023-11-19T08:04:58;3.45;;;1.35;;
50779;SDS011;36748;37.428;-121.972;2023-11-19T08:07:25;4.13;;;1.52;;
50779;SDS011;36748;37.428;-121.972;2023-11-19T08:09:52;3.83;;;1.60;;
50779;SDS011;36748;37.428;-121.972;2023-11-19T08:12:18;4.60;;;1.70;;
50779;SDS011;36748;37.428;-121.972;2023-11-19T08:14:44;3.53;;;1.30;;
50779;SDS011;36748;37.428;-121.972;2023-11-19T08:17:10;3.70;;;1.35;;
50779;SDS011;36748;37.428;-121.972;2023-11-19T08:19:36;2.78;;;1.33;;
50779;SDS011;36748;37.428;-121.972;2023-11-19T08:22:03;3.13;;;1.42;;
50779;SDS011;36748;37.428;-121.972;2023-11-19T08:24:29;3.63;;;1.30;;
50779;SDS011;36748;37.428;-121.972;2023-11-19T08:26:55;2.88;;;1.05;;
50779;SDS011;36748;37.428;-121.972;2023-11-19T08:29:21;4.35;;;1.60;;
50779;SDS011;36748;37.428;-121.972;2023-11-19T08:31:48;2.75;;;1.15;;
50779;SDS011;36748;37.428;-121.972;2023-11-19T08:34:14;4.63;;;1.60;;
50779;SDS011;36748;37.428;-121.972;2023-11-19T08:36:41;3.45;;;1.35;;
50779;SDS011;36748;37.428;-121.972;2023-11-19T08:39:07;4.30;;;1.48;;
50779;SDS011;36748;37.428;-121.972;2023-11-19T08:41:33;3.47;;;1.30;;
50779;SDS011;36748;37.428;-121.972;2023-11-19T08:44:00;2.97;;;1.33;;
50779;SDS011;36748;37.428;-121.972;2023-11-19T08:46:26;2.97;;;1.30;;
50779;SDS011;36748;37.428;-121.972;2023-11-19T08:48:52;3.97;;;1.15;;
50779;SDS011;36748;37.428;-121.972;2023-11-19T08:51:21;3.67;;;1.63;;
50779;SDS011;36748;37.428;-121.972;2023-11-19T08:53:48;4.68;;;1.67;;
50779;SDS011;36748;37.428;-121.972;2023-11-19T08:56:14;6.18;;;1.60;;
50779;SDS011;36748;37.428;-121.972;2023-11-19T08:58:40;5.00;;;1.77;;
50779;SDS011;36748;37.428;-121.972;2023-11-19T09:01:06;3.72;;;1.17;;
50779;SDS011;36748;37.428;-121.972;2023-11-19T09:03:32;3.22;;;1.60;;
50779;SDS011;36748;37.428;-121.972;2023-11-19T09:05:59;3.22;;;1.40;;
50779;SDS011;36748;37.428;-121.972;2023-11-19T09:08:27;4.63;;;1.13;;
50779;SDS011;36748;37.428;-121.972;2023-11-19T09:10:53;5.80;;;1.60;;
50779;SDS011;36748;37.428;-121.972;2023-11-19T09:13:19;5.43;;;1.60;;
50779;SDS011;36748;37.428;-121.972;2023-11-19T09:15:45;2.70;;;1.27;;
50779;SDS011;36748;37.428;-121.972;2023-11-19T09:18:11;3.20;;;1.25;;
50779;SDS011;36748;37.428;-121.972;2023-11-19T09:20:37;3.92;;;1.30;;
50779;SDS011;36748;37.428;-121.972;2023-11-19T09:23:06;2.83;;;0.98;;
50779;SDS011;36748;37.428;-121.972;2023-11-19T09:25:34;4.30;;;1.40;;
50779;SDS011;36748;37.428;-121.972;2023-11-19T09:28:00;4.10;;;1.48;;
50779;SDS011;36748;37.428;-121.972;2023-11-19T09:30:26;4.15;;;1.58;;
50779;SDS011;36748;37.428;-121.972;2023-11-19T09:33:12;4.95;;;1.52;;
50779;SDS011;36748;37.428;-121.972;2023-11-19T09:35:39;3.42;;;1.30;;
50779;SDS011;36748;37.428;-121.972;2023-11-19T09:38:05;3.83;;;1.30;;
50779;SDS011;36748;37.428;-121.972;2023-11-19T09:40:31;3.85;;;1.17;;
50779;SDS011;36748;37.428;-121.972;2023-11-19T09:42:57;3.00;;;1.15;;
50779;SDS011;36748;37.428;-121.972;2023-11-19T09:45:24;4.22;;;1.38;;
50779;SDS011;36748;37.428;-121.972;2023-11-19T09:47:53;4.10;;;1.38;;
50779;SDS011;36748;37.428;-121.972;2023-11-19T09:50:22;2.78;;;1.45;;
50779;SDS011;36748;37.428;-121.972;2023-11-19T09:52:49;3.55;;;1.48;;
50779;SDS011;36748;37.428;-121.972;2023-11-19T09:55:16;2.78;;;0.93;;
50779;SDS011;36748;37.428;-121.972;2023-11-19T09:57:42;3.95;;;1.70;;
50779;SDS011;36748;37.428;-121.972;2023-11-19T10:00:09;2.97;;;0.85;;
50779;SDS011;36748;37.428;-121.972;2023-11-19T10:02:37;2.95;;;1.17;;
50779;SDS011;36748;37.428;-121.972;2023-11-19T10:05:07;2.45;;;1.20;;
50779;SDS011;36748;37.428;-121.972;2023-11-19T10:07:33;3.05;;;1.17;;
50779;SDS011;36748;37.428;-121.972;2023-11-19T10:10:00;2.65;;;1.33;;
50779;SDS011;36748;37.428;-121.972;2023-11-19T10:12:29;4.82;;;1.40;;
50779;SDS011;36748;37.428;-121.972;2023-11-19T10:14:59;2.25;;;1.20;;
50779;SDS011;36748;37.428;-121.972;2023-11-19T10:17:28;3.80;;;1.50;;
50779;SDS011;36748;37.428;-121.972;2023-11-19T10:19:54;3.20;;;1.45;;
50779;SDS011;36748;37.428;-121.972;2023-11-19T10:22:22;4.13;;;1.30;;
50779;SDS011;36748;37.428;-121.972;2023-11-19T10:24:49;4.32;;;1.50;;
50779;SDS011;36748;37.428;-121.972;2023-11-19T10:27:15;3.15;;;1.35;;
50779;SDS011;36748;37.428;-121.972;2023-11-19T10:29:44;3.35;;;1.40;;
50779;SDS011;36748;37.428;-121.972;2023-11-19T10:32:12;3.60;;;1.45;;
50779;SDS011;36748;37.428;-121.972;2023-11-19T10:34:40;4.07;;;1.35;;
50779;SDS011;36748;37.428;-121.972;2023-11-19T10:37:07;4.47;;;1.38;;
50779;SDS011;36748;37.428;-121.972;2023-11-19T10:39:52;2.72;;;1.40;;
50779;SDS011;36748;37.428;-121.972;2023-11-19T10:42:22;3.08;;;1.27;;
50779;SDS011;36748;37.428;-121.972;2023-11-19T10:44:48;5.13;;;1.30;;
50779;SDS011;36748;37.428;-121.972;2023-11-19T10:47:15;2.35;;;1.08;;
50779;SDS011;36748;37.428;-121.972;2023-11-19T10:49:43;4.18;;;1.20;;
50779;SDS011;36748;37.428;-121.972;2023-11-19T10:52:15;3.75;;;1.38;;
50779;SDS011;36748;37.428;-121.972;2023-11-19T10:54:45;3.03;;;1.10;;
50779;SDS011;36748;37.428;-121.972;2023-11-19T10:57:17;3.63;;;1.38;;
50779;SDS011;36748;37.428;-121.972;2023-11-19T10:59:46;3.90;;;1.67;;
50779;SDS011;36748;37.428;-121.972;2023-11-19T11:02:14;3.95;;;1.25;;
50779;SDS011;36748;37.428;-121.972;2023-11-19T11:04:44;2.47;;;1.00;;
50779;SDS011;36748;37.428;-121.972;2023-11-19T11:07:13;3.35;;;1.17;;
50779;SDS011;36748;37.428;-121.972;2023-11-19T11:09:40;3.25;;;1.35;;
50779;SDS011;36748;37.428;-121.972;2023-11-19T11:12:07;4.53;;;1.40;;
50779;SDS011;36748;37.428;-121.972;2023-11-19T11:14:37;3.25;;;1.20;;
50779;SDS011;36748;37.428;-121.972;2023-11-19T11:17:05;3.40;;;1.33;;
50779;SDS011;36748;37.428;-121.972;2023-11-19T11:19:33;2.33;;;1.30;;
50779;SDS011;36748;37.428;-121.972;2023-11-19T11:21:59;4.55;;;1.40;;
50779;SDS011;36748;37.428;-121.972;2023-11-19T11:38:39;2.97;;;1.10;;
50779;SDS011;36748;37.428;-121.972;2023-11-19T11:41:40;3.08;;;1.23;;
50779;SDS011;36748;37.428;-121.972;2023-11-19T11:43:59;2.90;;;1.23;;
50779;SDS011;36748;37.428;-121.972;2023-11-19T11:49:00;3.33;;;1.70;;
50779;SDS011;36748;37.428;-121.972;2023-11-19T11:52:15;4.68;;;1.52;;
50779;SDS011;36748;37.428;-121.972;2023-11-19T11:54:26;2.17;;;1.30;;
50779;SDS011;36748;37.428;-121.972;2023-11-19T11:57:03;3.30;;;1.40;;
50779;SDS011;36748;37.428;-121.972;2023-11-19T12:02:27;3.80;;;1.58;;
50779;SDS011;36748;37.428;-121.972;2023-11-19T12:04:53;3.58;;;1.30;;
50779;SDS011;36748;37.428;-121.972;2023-11-19T12:07:21;2.72;;;1.13;;
50779;SDS011;36748;37.428;-121.972;2023-11-19T12:09:51;3.33;;;1.30;;
50779;SDS011;36748;37.428;-121.972;2023-11-19T12:12:22;3.83;;;1.33;;
50779;SDS011;36748;37.428;-121.972;2023-11-19T12:20:02;3.28;;;1.33;;
50779;SDS011;36748;37.428;-121.972;2023-11-19T12:22:42;2.20;;;1.17;;
50779;SDS011;36748;37.428;-121.972;2023-11-19T12:25:11;3.20;;;1.25;;
50779;SDS011;36748;37.428;-121.972;2023-11-19T12:27:43;4.38;;;1.33;;
50779;SDS011;36748;37.428;-121.972;2023-11-19T12:30:10;3.15;;;1.33;;
50779;SDS011;36748;37.428;-121.972;2023-11-19T12:32:44;3.53;;;1.40;;
50779;SDS011;36748;37.428;-121.972;2023-11-19T12:35:11;2.85;;;1.15;;
50779;SDS011;36748;37.428;-121.972;2023-11-19T12:37:41;2.83;;;1.30;;
50779;SDS011;36748;37.428;-121.972;2023-11-19T12:40:18;3.53;;;1.70;;
50779;SDS011;36748;37.428;-121.972;2023-11-19T12:42:46;3.15;;;1.42;;
50779;SDS011;36748;37.428;-121.972;2023-11-19T12:45:13;3.38;;;1.10;;
50779;SDS011;36748;37.428;-121.972;2023-11-19T12:47:41;3.55;;;1.23;;
50779;SDS011;36748;37.428;-121.972;2023-11-19T12:50:08;3.25;;;1.27;;
50779;SDS011;36748;37.428;-121.972;2023-11-19T12:52:36;4.68;;;1.30;;
50779;SDS011;36748;37.428;-121.972;2023-11-19T12:55:03;3.88;;;1.30;;
50779;SDS011;36748;37.428;-121.972;2023-11-19T12:57:50;3.47;;;1.05;;
50779;SDS011;36748;37.428;-121.972;2023-11-19T13:00:20;3.80;;;1.10;;
50779;SDS011;36748;37.428;-121.972;2023-11-19T13:02:50;2.78;;;1.10;;
50779;SDS011;36748;37.428;-121.972;2023-11-19T13:05:24;5.78;;;1.52;;
50779;SDS011;36748;37.428;-121.972;2023-11-19T13:07:58;1.95;;;1.00;;
50779;SDS011;36748;37.428;-121.972;2023-11-19T13:10:50;3.85;;;1.40;;
50779;SDS011;36748;37.428;-121.972;2023-11-19T13:13:17;2.35;;;1.00;;
50779;SDS011;36748;37.428;-121.972;2023-11-19T13:15:43;4.40;;;1.13;;
50779;SDS011;36748;37.428;-121.972;2023-11-19T13:18:15;3.25;;;1.30;;
50779;SDS011;36748;37.428;-121.972;2023-11-19T13:20:42;4.57;;;1.38;;
50779;SDS011;36748;37.428;-121.972;2023-11-19T13:23:08;3.90;;;1.60;;
50779;SDS011;36748;37.428;-121.972;2023-11-19T13:25:36;2.92;;;1.33;;
50779;SDS011;36748;37.428;-121.972;2023-11-19T13:28:02;5.28;;;1.42;;
50779;SDS011;36748;37.428;-121.972;2023-11-19T13:30:29;3.70;;;1.13;;
50779;SDS011;36748;37.428;-121.972;2023-11-19T13:32:55;8.07;;;1.17;;
50779;SDS011;36748;37.428;-121.972;2023-11-19T13:35:21;2.88;;;1.10;;
50779;SDS011;36748;37.428;-121.972;2023-11-19T13:37:48;4.95;;;1.52;;
50779;SDS011;36748;37.428;-121.972;2023-11-19T13:40:14;4.40;;;1.30;;
50779;SDS011;36748;37.428;-121.972;2023-11-19T13:42:41;3.30;;;1.40;;
50779;SDS011;36748;37.428;-121.972;2023-11-19T13:47:38;5.75;;;1.17;;
50779;SDS011;36748;37.428;-121.972;2023-11-19T13:50:11;2.38;;;1.27;;
50779;SDS011;36748;37.428;-121.972;2023-11-19T13:52:39;1.90;;;0.82;;
50779;SDS011;36748;37.428;-121.972;2023-11-19T13:55:07;3.97;;;1.45;;
50779;SDS011;36748;37.428;-121.972;2023-11-19T13:57:35;2.35;;;1.05;;
50779;SDS011;36748;37.428;-121.972;2023-11-19T14:00:14;2.85;;;0.90;;
50779;SDS011;36748;37.428;-121.972;2023-11-19T14:02:44;3.15;;;1.00;;
50779;SDS011;36748;37.428;-121.972;2023-11-19T14:05:14;2.70;;;1.10;;
50779;SDS011;36748;37.428;-121.972;2023-11-19T14:07:42;2.33;;;1.15;;
50779;SDS011;36748;37.428;-121.972;2023-11-19T14:10:09;3.30;;;1.63;;
50779;SDS011;36748;37.428;-121.972;2023-11-19T14:12:38;1.70;;;1.00;;
50779;SDS011;36748;37.428;-121.972;2023-11-19T14:15:05;4.50;;;1.42;;
50779;SDS011;36748;37.428;-121.972;2023-11-19T14:17:32;9.23;;;2.30;;
50779;SDS011;36748;37.428;-121.972;2023-11-19T14:19:59;3.75;;;1.67;;
50779;SDS011;36748;37.428;-121.972;2023-11-19T14:22:26;6.28;;;1.17;;
50779;SDS011;36748;37.428;-121.972;2023-11-19T14:24:52;5.80;;;1.60;;
50779;SDS011;36748;37.428;-121.972;2023-11-19T14:27:19;2.88;;;1.33;;
50779;SDS011;36748;37.428;-121.972;2023-11-19T14:29:45;3.80;;;1.33;;
50779;SDS011;36748;37.428;-121.972;2023-11-19T14:32:11;4.05;;;1.25;;
50779;SDS011;36748;37.428;-121.972;2023-11-19T14:34:37;5.07;;;1.65;;
50779;SDS011;36748;37.428;-121.972;2023-11-19T14:37:03;4.95;;;1.58;;
50779;SDS011;36748;37.428;-121.972;2023-11-19T14:39:30;4.07;;;1.52;;
50779;SDS011;36748;37.428;-121.972;2023-11-19T14:41:59;5.13;;;1.70;;
50779;SDS011;36748;37.428;-121.972;2023-11-19T14:44:29;3.15;;;1.42;;